Latest Weather Observations for Clermont Airport

IDQ60801

Issued at 3:05 pm EST Wednesday 26 November 2014 (issued every 30 minutes, with the page automatically refreshed every 10 minutes)

About weather observations | Map of weather stations | Latest weather observations for QLD | Other Formats
Station Details ID: 035124 Name: CLERMONT AIRPORT Lat: -22.78 Lon: 147.62 Height: 270.27 m
Data from the previous 72 hours. | See also: Recent months at Clermont Airport
Date/Time
EST
Temp
°C
App
Temp
°C
Dew
Point
Rel
Hum
%
Delta-T
°C
Wind Press
QNH
hPa
Press
MSL
hPa
Rain
since 9 am
mm
Dir
 
Spd
km/h
Gust
km/h
Spd
kts
Gust
kts
26/03:00pm 34.7 33.2 11.8 25 13.8 ESE 11 20 6 11 1010.8 1009.1 0.0
26/02:30pm 35.7 34.8 12.6 25 14.1 E 9 19 5 10 1011.1 1009.4 0.0
26/02:00pm 34.7 33.6 13.0 27 13.3 ESE 11 26 6 14 1011.6 1009.9 0.0
26/01:30pm 33.9 32.3 12.8 28 12.8 NE 13 22 7 12 1012.1 1010.4 0.0
26/01:00pm 34.2 32.9 12.5 27 13.1 ENE 11 19 6 10 1012.5 1010.9 0.0
26/12:30pm 34.9 34.2 13.1 27 13.3 ENE 9 15 5 8 1013.0 1011.4 0.0
26/12:00pm 33.0 32.1 13.6 31 11.9 ENE 11 24 6 13 1013.6 1012.0 0.0
26/11:30am 31.3 30.6 14.4 35 10.4 NE 11 24 6 13 1014.3 1012.6 0.0
26/11:00am 32.0 30.4 15.1 36 10.5 E 17 30 9 16 1014.4 1012.7 0.0
26/10:30am 31.1 30.7 16.3 41 9.4 ENE 13 30 7 16 1014.9 1013.2 0.0
26/10:00am 30.0 30.1 17.5 47 8.0 NE 13 26 7 14 1015.3 1013.6 0.0
26/09:30am 28.7 29.5 18.2 53 6.8 ENE 11 22 6 12 1015.5 1013.8 0.0
26/09:00am 27.9 29.2 19.4 60 5.6 ENE 11 19 6 10 1015.5 1013.8 0.0
26/08:30am 26.4 28.2 19.5 66 4.5 E 9 17 5 9 1015.8 1014.2 0.0
26/08:00am 25.8 27.9 19.4 67 4.2 SSE 7 13 4 7 1016.1 1014.5 0.0
26/07:30am 25.3 27.0 19.4 70 3.8 SSE 9 13 5 7 1015.8 1014.2 0.0
26/07:00am 25.0 27.2 19.1 70 3.8 SSE 6 11 3 6 1015.8 1014.2 0.0
26/06:30am 24.5 27.3 19.6 74 3.2 SE 4 7 2 4 1015.4 1013.7 0.0
26/06:00am 23.8 26.4 19.3 76 2.9 S 4 9 2 5 1015.0 1013.3 0.0
26/05:30am 23.1 25.5 18.8 77 2.7 SW 4 7 2 4 1014.6 1012.9 0.0
26/05:00am 23.4 26.4 19.3 78 2.6 ESE 2 4 1 2 1013.8 1012.2 0.0
26/04:30am 23.1 25.3 19.3 79 2.4 S 6 7 3 4 1013.6 1012.0 0.0
26/04:00am 22.0 25.0 18.4 80 2.3 CALM 0 0 0 0 1013.4 1011.8 0.0
26/03:30am 23.1 25.3 19.1 78 2.6 NNE 6 9 3 5 1013.3 1011.7 0.0
26/03:00am 22.9 25.3 18.9 78 2.6 NNE 4 7 2 4 1013.1 1011.5 0.0
26/02:30am 23.2 25.1 18.5 75 3.0 NNE 6 7 3 4 1012.9 1011.3 0.0
26/02:00am 23.7 25.5 18.4 72 3.4 NE 6 13 3 7 1013.0 1011.4 0.0
26/01:30am 23.7 25.3 17.0 66 4.2 NE 4 7 2 4 1013.0 1011.4 0.0
26/01:00am 24.3 25.8 16.6 62 4.8 N 4 6 2 3 1013.0 1011.4 0.0
26/12:30am 25.0 26.4 16.4 59 5.3 NE 4 15 2 8 1013.0 1011.4 0.0
26/12:00am 25.0 25.8 14.8 53 6.2 NNE 4 7 2 4 1013.2 1011.6 0.0
 
Date/Time
EST
Temp
°C
App
Temp
°C
Dew
Point
Rel
Hum
%
Delta-T
°C
Wind Press
QNH
hPa
Press
MSL
hPa
Rain
since 9 am
mm
Dir
 
Spd
km/h
Gust
km/h
Spd
kts
Gust
kts
25/11:30pm 25.6 25.9 14.4 50 6.7 ENE 6 9 3 5 1013.6 1012.0 0.0
25/11:00pm 26.2 26.6 13.7 46 7.5 NE 4 6 2 3 1013.6 1012.0 0.0
25/10:30pm 27.0 26.7 13.4 43 8.1 NNE 7 13 4 7 1013.6 1012.0 0.0
25/10:00pm 27.6 26.9 13.2 41 8.6 NNE 9 15 5 8 1013.5 1011.9 0.0
25/09:30pm 28.5 28.3 13.6 40 9.0 NNE 7 13 4 7 1013.5 1011.9 0.0
25/09:00pm 29.3 28.1 13.9 39 9.3 NE 13 22 7 12 1013.1 1011.5 0.0
25/08:30pm 29.9 28.7 12.8 35 10.2 NE 11 20 6 11 1012.7 1011.1 0.0
25/08:00pm 30.2 29.4 11.2 31 11.1 NE 6 9 3 5 1012.2 1010.5 0.0
25/07:30pm 31.5 30.7 11.8 30 11.7 ENE 7 15 4 8 1012.0 1010.3 0.0
25/07:00pm 32.0 31.1 11.2 28 12.2 ENE 7 13 4 7 1011.4 1009.7 0.0
25/06:30pm 33.0 31.8 11.5 27 12.8 ENE 9 13 5 7 1011.1 1009.4 0.0
25/06:00pm 34.1 32.8 11.3 25 13.6 E 9 17 5 9 1010.9 1009.2 0.0
25/05:30pm 34.6 33.2 12.3 26 13.5 E 11 19 6 10 1010.6 1008.9 0.0
25/05:00pm 35.4 34.1 11.1 23 14.5 ESE 9 17 5 9 1010.4 1008.7 0.0
25/04:30pm 35.4 33.3 11.1 23 14.5 ESE 13 24 7 13 1010.3 1008.6 0.0
25/04:00pm 34.8 33.5 11.2 24 14.1 SE 9 17 5 9 1010.4 1008.7 0.0
25/03:30pm 35.0 34.3 13.2 27 13.4 E 9 19 5 10 1010.6 1008.9 0.0
25/03:00pm 34.3 32.8 13.2 28 12.9 E 13 22 7 12 1011.1 1009.4 0.0
25/02:30pm 34.8 34.2 13.6 28 13.1 ENE 9 20 5 11 1011.5 1009.8 0.0
25/02:00pm 34.5 33.3 13.9 29 12.7 ESE 13 24 7 13 1011.8 1010.1 0.0
25/01:30pm 33.3 33.0 14.4 32 11.7 E 9 24 5 13 1012.2 1010.5 0.0
25/01:00pm 34.2 33.6 14.7 31 12.2 ESE 11 28 6 15 1012.5 1010.9 0.0
25/12:30pm 33.0 31.8 15.0 33 11.2 E 15 28 8 15 1012.7 1011.1 0.0
25/12:00pm 32.2 31.8 15.2 35 10.6 ENE 11 22 6 12 1013.2 1011.6 0.0
25/11:30am 32.9 32.2 15.4 35 11.0 E 13 30 7 16 1013.9 1012.3 0.0
25/11:00am 32.1 32.1 15.1 35 10.6 E 9 20 5 11 1014.4 1012.7 0.0
25/10:30am 31.4 31.6 15.8 39 9.8 E 9 22 5 12 1014.8 1013.1 0.0
25/10:00am 29.2 29.9 17.1 48 7.7 NE 9 19 5 10 1015.2 1013.5 0.0
25/09:30am 27.6 28.9 17.5 54 6.4 NNE 7 15 4 8 1015.4 1013.7 0.0
25/09:00am 27.0 28.4 17.8 57 5.9 NNW 7 13 4 7 1015.7 1014.1 0.0
25/08:30am 26.4 27.9 18.0 60 5.4 NNE 7 11 4 6 1015.8 1014.2 0.0
25/08:00am 26.4 28.1 18.5 62 5.1 NNE 7 17 4 9 1015.8 1014.2 0.0
25/07:30am 25.4 26.9 18.1 64 4.7 NE 7 11 4 6 1015.7 1014.1 0.0
25/07:00am 24.1 25.7 18.3 70 3.7 NE 7 11 4 6 1015.8 1014.2 0.0
25/06:30am 23.1 25.1 17.8 72 3.3 E 4 7 2 4 1015.4 1013.7 0.0
25/06:00am 22.2 24.6 18.0 77 2.6 ESE 2 4 1 2 1015.0 1013.3 0.0
25/05:30am 21.1 23.4 17.7 81 2.1 SSE 2 6 1 3 1014.6 1012.9 0.0
25/05:00am 20.8 22.9 17.2 80 2.2 NE 2 4 1 2 1014.0 1012.4 0.0
25/04:30am 21.4 23.3 17.6 79 2.4 NE 4 7 2 4 1013.6 1012.0 0.0
25/04:00am 21.6 23.0 17.8 79 2.4 NNE 7 13 4 7 1013.3 1011.7 0.0
25/03:30am 21.7 23.1 17.3 76 2.7 NNE 6 7 3 4 1013.5 1011.9 0.0
25/03:00am 21.8 23.1 17.0 74 3.0 NNE 6 7 3 4 1013.4 1011.8 0.0
25/02:30am 21.6 23.0 16.3 72 3.2 N 4 6 2 3 1013.4 1011.8 0.0
25/02:00am 22.8 24.1 17.0 70 3.6 NE 6 7 3 4 1013.5 1011.9 0.0
25/01:30am 23.3 24.4 17.1 68 3.9 NNE 7 11 4 6 1013.7 1012.1 0.0
25/01:00am 23.6 24.6 16.9 66 4.2 NE 7 11 4 6 1013.9 1012.3 0.0
25/12:30am 24.1 25.4 17.1 65 4.4 NE 6 9 3 5 1014.2 1012.5 0.0
25/12:00am 24.6 25.7 17.1 63 4.7 NE 7 17 4 9 1014.4 1012.7 0.0
 
Date/Time
EST
Temp
°C
App
Temp
°C
Dew
Point
Rel
Hum
%
Delta-T
°C
Wind Press
QNH
hPa
Press
MSL
hPa
Rain
since 9 am
mm
Dir
 
Spd
km/h
Gust
km/h
Spd
kts
Gust
kts
24/11:30pm 25.2 25.7 17.4 62 4.9 NNE 11 22 6 12 1014.5 1012.8 0.0
24/11:00pm 25.4 25.2 17.6 62 4.9 NNE 15 20 8 11 1014.7 1013.0 0.0
24/10:30pm 25.8 26.0 17.7 61 5.1 NNE 13 20 7 11 1014.6 1012.9 0.0
24/10:00pm 26.3 25.3 17.6 58 5.5 NNE 19 37 10 20 1014.3 1012.6 0.0
24/09:30pm 27.0 26.8 17.5 56 6.0 NNE 15 24 8 13 1013.9 1012.3 0.0
24/09:00pm 27.6 27.7 17.5 54 6.4 NNE 13 24 7 13 1013.3 1011.7 0.0
24/08:30pm 28.4 28.2 17.6 52 6.9 NE 15 24 8 13 1013.1 1011.5 0.0
24/08:00pm 29.1 28.4 17.3 49 7.5 NE 17 28 9 15 1012.5 1010.9 0.0
24/07:30pm 30.4 29.9 16.8 44 8.6 NE 15 24 8 13 1012.0 1010.3 0.0
24/07:00pm 31.1 30.1 16.7 42 9.2 NE 17 30 9 16 1011.5 1009.8 0.0
24/06:30pm 32.3 30.8 15.3 35 10.6 ENE 17 26 9 14 1011.0 1009.3 0.0
24/06:00pm 34.4 33.0 10.9 24 13.9 E 9 15 5 8 1010.4 1008.7 0.0
24/05:30pm 34.9 33.8 10.7 23 14.3 NE 7 19 4 10 1010.0 1008.4 0.0
24/05:00pm 35.4 34.0 9.7 21 15.0 ENE 7 15 4 8 1009.8 1008.2 0.0
24/04:30pm 35.4 32.7 9.0 20 15.2 NNE 13 20 7 11 1009.9 1008.3 0.0
24/04:00pm 35.5 34.2 9.8 21 15.0 ENE 7 11 4 6 1010.1 1008.5 0.0
24/03:30pm 35.2 32.7 9.6 21 14.9 ESE 13 26 7 14 1010.5 1008.8 0.0
24/03:00pm 35.9 34.3 10.2 21 15.1 ESE 9 22 5 12 1010.8 1009.1 0.0
24/02:30pm 35.4 32.9 9.7 21 15.0 E 13 28 7 15 1011.2 1009.5 0.0
24/02:00pm 35.0 32.2 10.1 22 14.6 NE 15 28 8 15 1011.6 1009.9 0.0
24/01:30pm 34.5 32.4 9.7 22 14.4 NNE 11 17 6 9 1012.2 1010.5 0.0
24/01:00pm 33.8 31.7 9.8 23 13.9 NNE 11 22 6 12 1012.8 1011.2 0.0
24/12:30pm 32.8 30.6 10.8 26 12.9 N 13 19 7 10 1013.4 1011.8 0.0
24/12:00pm 33.6 30.5 11.5 26 13.1 NNE 19 24 10 13 1014.0 1012.4 0.0
24/11:30am 31.4 30.2 11.7 29 11.6 N 9 22 5 12 1014.5 1012.8 0.0
24/11:00am 31.9 30.8 13.2 32 11.3 NE 11 24 6 13 1015.3 1013.6 0.0
24/10:30am 30.6 30.3 13.4 35 10.4 NE 7 17 4 9 1015.8 1014.2 0.0
24/10:00am 30.3 28.0 13.1 34 10.3 N 17 30 9 16 1016.1 1014.5 0.0
24/09:30am 28.6 27.3 13.7 40 9.0 NNE 13 22 7 12 1016.5 1014.9 0.0
24/09:00am 27.8 26.3 13.0 40 8.8 NNE 13 24 7 13 1016.7 1015.1 0.0
24/08:30am 26.6 26.4 15.6 50 6.8 NNE 11 20 6 11 1017.0 1015.4 0.0
24/08:00am 25.4 25.4 16.3 57 5.6 ENE 11 19 6 10 1017.2 1015.6 0.0
24/07:30am 24.9 25.4 17.4 63 4.7 NNE 11 17 6 9 1017.1 1015.5 0.0
24/07:00am 24.0 25.3 17.5 67 4.1 NNE 7 13 4 7 1017.0 1015.4 0.0
24/06:30am 22.6 24.8 16.6 69 3.7 CALM 0 0 0 0 1016.7 1015.1 0.0
24/06:00am 21.4 23.8 17.0 76 2.7 CALM 0 0 0 0 1016.5 1014.9 0.0
24/05:30am 20.0 22.2 16.4 80 2.2 CALM 0 0 0 0 1016.0 1014.4 0.0
24/05:00am 20.6 22.8 16.4 77 2.6 CALM 0 0 0 0 1015.5 1013.8 0.0
24/04:30am 20.8 22.4 16.0 74 2.9 NE 2 4 1 2 1015.4 1013.7 0.0
24/04:00am 21.5 22.6 16.5 73 3.1 NNE 6 9 3 5 1015.2 1013.5 0.0
24/03:30am 21.9 22.9 16.4 71 3.4 NNE 6 9 3 5 1015.1 1013.4 0.0
24/03:00am 22.4 23.2 16.4 69 3.7 NE 7 11 4 6 1014.9 1013.2 0.0
24/02:30am 22.8 23.6 16.4 67 3.9 NNE 7 11 4 6 1015.0 1013.3 0.0
24/02:00am 23.4 23.5 16.4 64 4.3 NNE 11 15 6 8 1015.1 1013.4 0.0
24/01:30am 24.1 24.4 17.1 65 4.4 N 11 22 6 12 1015.3 1013.6 0.0
24/01:00am 24.2 24.8 16.7 63 4.7 NNE 9 13 5 7 1015.5 1013.8 0.0
24/12:30am 24.5 25.0 16.5 61 5.0 N 9 15 5 8 1015.6 1013.9 0.0
24/12:00am 25.4 25.8 16.3 57 5.6 NNE 9 15 5 8 1015.6 1013.9 0.0
 
Date/Time
EST
Temp
°C
App
Temp
°C
Dew
Point
Rel
Hum
%
Delta-T
°C
Wind Press
QNH
hPa
Press
MSL
hPa
Rain
since 9 am
mm
Dir
 
Spd
km/h
Gust
km/h
Spd
kts
Gust
kts
23/11:30pm 26.1 25.8 15.5 52 6.5 NE 11 20 6 11 1015.4 1013.7 0.0
23/11:00pm 27.0 26.6 16.3 52 6.7 NE 13 24 7 13 1015.2 1013.5 0.0
23/10:30pm 27.7 27.7 16.3 49 7.1 NE 11 22 6 12 1015.0 1013.3 0.0
23/10:00pm 28.5 27.8 15.4 45 8.1 NE 13 19 7 10 1014.8 1013.1 0.0
23/09:30pm 29.3 28.8 13.9 39 9.3 NNE 9 15 5 8 1014.5 1012.8 0.0
23/09:00pm 30.0 29.5 13.7 37 9.9 NE 9 15 5 8 1013.9 1012.3 0.0
23/08:30pm 30.3 29.9 13.1 34 10.3 NE 7 13 4 7 1013.5 1011.9 0.0
23/08:00pm 30.7 29.6 10.6 29 11.6 NE 7 9 4 5 1013.1 1011.5 0.0
23/07:30pm 31.6 30.4 10.3 27 12.3 NE 7 11 4 6 1012.7 1011.1 0.0
23/07:00pm 32.8 31.6 10.2 25 13.1 ENE 7 15 4 8 1012.5 1010.9 0.0
23/06:30pm 33.7 32.1 10.3 24 13.7 ENE 9 19 5 10 1012.1 1010.4 0.0
23/06:00pm 34.8 33.3 10.6 23 14.3 ENE 9 19 5 10 1011.8 1010.1 0.0
23/05:30pm 35.8 34.0 10.8 22 14.8 NE 11 20 6 11 1011.6 1009.9 0.0
23/05:00pm 36.0 33.6 10.2 21 15.2 E 13 30 7 16 1011.4 1009.7 0.0
23/04:30pm 36.5 33.9 10.6 21 15.4 ENE 15 28 8 15 1011.4 1009.7 0.0
23/04:00pm 36.4 34.0 11.3 22 15.1 ENE 15 28 8 15 1011.5 1009.8 0.0
23/03:30pm 37.1 35.0 11.1 21 15.6 ENE 13 28 7 15 1011.8 1010.1 0.0

Other Formats:

Comma delimited format used in spreadsheet applications
http://www.bom.gov.au/fwo/IDQ60801/IDQ60801.94395.axf

JavaScript Object Notation format (JSON) in row-major order
http://www.bom.gov.au/fwo/IDQ60801/IDQ60801.94395.json